sensor_id;sensor_type;location;lat;lon;timestamp;P1;durP1;ratioP1;P2;durP2;ratioP2
66893;SDS011;53801;55.786;49.142;2024-01-30T00:01:27;23.10;;;6.20;;
66893;SDS011;53801;55.786;49.142;2024-01-30T00:03:55;16.60;;;5.53;;
66893;SDS011;53801;55.786;49.142;2024-01-30T00:06:27;21.15;;;7.72;;
66893;SDS011;53801;55.786;49.142;2024-01-30T00:09:08;25.20;;;6.78;;
66893;SDS011;53801;55.786;49.142;2024-01-30T00:11:41;18.48;;;5.75;;
66893;SDS011;53801;55.786;49.142;2024-01-30T00:14:19;19.87;;;5.97;;
66893;SDS011;53801;55.786;49.142;2024-01-30T00:16:47;20.08;;;6.55;;
66893;SDS011;53801;55.786;49.142;2024-01-30T00:19:13;22.98;;;6.72;;
66893;SDS011;53801;55.786;49.142;2024-01-30T00:21:47;20.55;;;6.68;;
66893;SDS011;53801;55.786;49.142;2024-01-30T00:24:17;17.50;;;6.57;;
66893;SDS011;53801;55.786;49.142;2024-01-30T00:26:45;18.52;;;5.03;;
66893;SDS011;53801;55.786;49.142;2024-01-30T00:29:19;20.77;;;6.50;;
66893;SDS011;53801;55.786;49.142;2024-01-30T00:32:06;14.90;;;4.90;;
66893;SDS011;53801;55.786;49.142;2024-01-30T00:34:54;24.42;;;7.70;;
66893;SDS011;53801;55.786;49.142;2024-01-30T00:37:28;19.90;;;6.60;;
66893;SDS011;53801;55.786;49.142;2024-01-30T00:40:06;16.33;;;4.95;;
66893;SDS011;53801;55.786;49.142;2024-01-30T00:42:32;18.00;;;6.43;;
66893;SDS011;53801;55.786;49.142;2024-01-30T00:44:58;16.60;;;5.35;;
66893;SDS011;53801;55.786;49.142;2024-01-30T00:47:45;18.45;;;5.55;;
66893;SDS011;53801;55.786;49.142;2024-01-30T00:50:21;25.98;;;6.82;;
66893;SDS011;53801;55.786;49.142;2024-01-30T00:52:47;20.08;;;5.90;;
66893;SDS011;53801;55.786;49.142;2024-01-30T00:55:15;22.35;;;8.15;;
66893;SDS011;53801;55.786;49.142;2024-01-30T00:57:45;19.33;;;6.20;;
66893;SDS011;53801;55.786;49.142;2024-01-30T01:00:15;16.50;;;5.60;;
66893;SDS011;53801;55.786;49.142;2024-01-30T01:03:05;17.83;;;6.07;;
66893;SDS011;53801;55.786;49.142;2024-01-30T01:05:43;19.25;;;5.72;;
66893;SDS011;53801;55.786;49.142;2024-01-30T01:08:12;17.77;;;5.75;;
66893;SDS011;53801;55.786;49.142;2024-01-30T01:10:45;17.90;;;6.03;;
66893;SDS011;53801;55.786;49.142;2024-01-30T01:13:15;16.13;;;6.18;;
66893;SDS011;53801;55.786;49.142;2024-01-30T01:15:41;16.30;;;5.65;;
66893;SDS011;53801;55.786;49.142;2024-01-30T01:18:09;16.65;;;4.57;;
66893;SDS011;53801;55.786;49.142;2024-01-30T01:20:36;16.05;;;5.40;;
66893;SDS011;53801;55.786;49.142;2024-01-30T01:23:05;16.13;;;5.60;;
66893;SDS011;53801;55.786;49.142;2024-01-30T01:25:51;18.13;;;5.70;;
66893;SDS011;53801;55.786;49.142;2024-01-30T01:28:19;15.77;;;5.53;;
66893;SDS011;53801;55.786;49.142;2024-01-30T01:30:47;15.13;;;5.77;;
66893;SDS011;53801;55.786;49.142;2024-01-30T01:33:13;15.18;;;4.78;;
66893;SDS011;53801;55.786;49.142;2024-01-30T01:35:42;16.42;;;5.22;;
66893;SDS011;53801;55.786;49.142;2024-01-30T01:38:10;17.73;;;5.93;;
66893;SDS011;53801;55.786;49.142;2024-01-30T01:40:39;17.55;;;5.20;;
66893;SDS011;53801;55.786;49.142;2024-01-30T01:43:08;11.33;;;4.47;;
66893;SDS011;53801;55.786;49.142;2024-01-30T01:45:54;16.45;;;5.25;;
66893;SDS011;53801;55.786;49.142;2024-01-30T01:48:25;15.38;;;5.53;;
66893;SDS011;53801;55.786;49.142;2024-01-30T01:50:59;14.52;;;5.50;;
66893;SDS011;53801;55.786;49.142;2024-01-30T01:53:27;16.00;;;6.07;;
66893;SDS011;53801;55.786;49.142;2024-01-30T01:55:56;14.60;;;5.57;;
66893;SDS011;53801;55.786;49.142;2024-01-30T01:58:22;14.75;;;4.95;;
66893;SDS011;53801;55.786;49.142;2024-01-30T02:01:11;10.50;;;3.78;;
66893;SDS011;53801;55.786;49.142;2024-01-30T02:03:48;9.80;;;4.38;;
66893;SDS011;53801;55.786;49.142;2024-01-30T02:06:19;12.27;;;4.10;;
66893;SDS011;53801;55.786;49.142;2024-01-30T02:08:48;14.77;;;5.13;;
66893;SDS011;53801;55.786;49.142;2024-01-30T02:11:14;13.75;;;4.72;;
66893;SDS011;53801;55.786;49.142;2024-01-30T02:13:43;13.13;;;5.00;;
66893;SDS011;53801;55.786;49.142;2024-01-30T02:16:09;14.77;;;5.00;;
66893;SDS011;53801;55.786;49.142;2024-01-30T02:19:05;12.15;;;3.95;;
66893;SDS011;53801;55.786;49.142;2024-01-30T02:21:36;13.70;;;4.38;;
66893;SDS011;53801;55.786;49.142;2024-01-30T02:24:11;18.55;;;5.57;;
66893;SDS011;53801;55.786;49.142;2024-01-30T02:26:40;14.63;;;5.00;;
66893;SDS011;53801;55.786;49.142;2024-01-30T02:29:12;10.63;;;4.63;;
66893;SDS011;53801;55.786;49.142;2024-01-30T02:31:40;10.45;;;4.13;;
66893;SDS011;53801;55.786;49.142;2024-01-30T02:34:05;13.73;;;5.03;;
66893;SDS011;53801;55.786;49.142;2024-01-30T02:36:31;14.23;;;5.70;;
66893;SDS011;53801;55.786;49.142;2024-01-30T02:39:04;12.37;;;4.27;;
66893;SDS011;53801;55.786;49.142;2024-01-30T02:41:33;11.73;;;3.97;;
66893;SDS011;53801;55.786;49.142;2024-01-30T02:43:58;19.05;;;5.68;;
66893;SDS011;53801;55.786;49.142;2024-01-30T02:46:29;9.97;;;4.50;;
66893;SDS011;53801;55.786;49.142;2024-01-30T02:48:57;15.32;;;5.03;;
66893;SDS011;53801;55.786;49.142;2024-01-30T02:51:23;12.40;;;4.53;;
66893;SDS011;53801;55.786;49.142;2024-01-30T02:53:48;16.13;;;5.27;;
66893;SDS011;53801;55.786;49.142;2024-01-30T02:56:14;14.60;;;4.73;;
66893;SDS011;53801;55.786;49.142;2024-01-30T02:58:40;16.70;;;5.35;;
66893;SDS011;53801;55.786;49.142;2024-01-30T03:01:06;16.70;;;5.28;;
66893;SDS011;53801;55.786;49.142;2024-01-30T03:03:31;15.60;;;4.57;;
66893;SDS011;53801;55.786;49.142;2024-01-30T03:05:57;18.90;;;5.97;;
66893;SDS011;53801;55.786;49.142;2024-01-30T03:08:23;18.50;;;6.07;;
66893;SDS011;53801;55.786;49.142;2024-01-30T03:10:48;16.73;;;5.97;;
66893;SDS011;53801;55.786;49.142;2024-01-30T03:13:14;15.98;;;5.70;;
66893;SDS011;53801;55.786;49.142;2024-01-30T03:15:39;17.60;;;5.50;;
66893;SDS011;53801;55.786;49.142;2024-01-30T03:18:05;13.83;;;4.83;;
66893;SDS011;53801;55.786;49.142;2024-01-30T03:20:30;22.45;;;6.63;;
66893;SDS011;53801;55.786;49.142;2024-01-30T03:22:57;16.50;;;5.95;;
66893;SDS011;53801;55.786;49.142;2024-01-30T03:25:22;17.95;;;5.18;;
66893;SDS011;53801;55.786;49.142;2024-01-30T03:27:48;13.87;;;5.00;;
66893;SDS011;53801;55.786;49.142;2024-01-30T03:30:14;18.75;;;6.18;;
66893;SDS011;53801;55.786;49.142;2024-01-30T03:32:39;15.43;;;4.90;;
66893;SDS011;53801;55.786;49.142;2024-01-30T03:35:05;15.57;;;6.28;;
66893;SDS011;53801;55.786;49.142;2024-01-30T03:37:31;12.17;;;4.60;;
66893;SDS011;53801;55.786;49.142;2024-01-30T03:39:56;14.35;;;5.10;;
66893;SDS011;53801;55.786;49.142;2024-01-30T03:42:22;17.30;;;6.20;;
66893;SDS011;53801;55.786;49.142;2024-01-30T03:44:48;16.43;;;6.67;;
66893;SDS011;53801;55.786;49.142;2024-01-30T03:47:13;18.83;;;6.10;;
66893;SDS011;53801;55.786;49.142;2024-01-30T03:49:39;18.90;;;6.20;;
66893;SDS011;53801;55.786;49.142;2024-01-30T03:52:05;15.05;;;5.50;;
66893;SDS011;53801;55.786;49.142;2024-01-30T03:54:30;19.43;;;6.43;;
66893;SDS011;53801;55.786;49.142;2024-01-30T03:56:56;14.38;;;5.03;;
66893;SDS011;53801;55.786;49.142;2024-01-30T03:59:21;20.20;;;6.97;;
66893;SDS011;53801;55.786;49.142;2024-01-30T04:01:50;18.60;;;5.95;;
66893;SDS011;53801;55.786;49.142;2024-01-30T04:04:16;16.15;;;5.30;;
66893;SDS011;53801;55.786;49.142;2024-01-30T04:06:42;15.40;;;5.17;;
66893;SDS011;53801;55.786;49.142;2024-01-30T04:09:07;18.33;;;6.18;;
66893;SDS011;53801;55.786;49.142;2024-01-30T04:11:33;15.43;;;5.50;;
66893;SDS011;53801;55.786;49.142;2024-01-30T04:13:58;14.37;;;5.37;;
66893;SDS011;53801;55.786;49.142;2024-01-30T04:16:24;18.85;;;6.70;;
66893;SDS011;53801;55.786;49.142;2024-01-30T04:18:50;16.23;;;5.27;;
66893;SDS011;53801;55.786;49.142;2024-01-30T04:21:16;16.85;;;5.95;;
66893;SDS011;53801;55.786;49.142;2024-01-30T04:23:42;19.33;;;6.40;;
66893;SDS011;53801;55.786;49.142;2024-01-30T04:26:08;13.85;;;4.80;;
66893;SDS011;53801;55.786;49.142;2024-01-30T04:35:08;30.17;;;8.13;;
66893;SDS011;53801;55.786;49.142;2024-01-30T04:40:28;20.40;;;6.85;;
66893;SDS011;53801;55.786;49.142;2024-01-30T04:43:39;16.30;;;5.97;;
66893;SDS011;53801;55.786;49.142;2024-01-30T04:46:05;21.83;;;6.23;;
66893;SDS011;53801;55.786;49.142;2024-01-30T04:48:54;18.25;;;6.05;;
66893;SDS011;53801;55.786;49.142;2024-01-30T04:51:19;19.20;;;6.13;;
66893;SDS011;53801;55.786;49.142;2024-01-30T04:53:45;29.92;;;8.73;;
66893;SDS011;53801;55.786;49.142;2024-01-30T04:56:11;21.23;;;7.30;;
66893;SDS011;53801;55.786;49.142;2024-01-30T04:58:39;21.02;;;7.13;;
66893;SDS011;53801;55.786;49.142;2024-01-30T05:04:22;17.33;;;6.57;;
66893;SDS011;53801;55.786;49.142;2024-01-30T05:06:51;20.00;;;6.90;;
66893;SDS011;53801;55.786;49.142;2024-01-30T05:12:50;17.97;;;6.43;;
66893;SDS011;53801;55.786;49.142;2024-01-30T05:15:16;23.75;;;7.60;;
66893;SDS011;53801;55.786;49.142;2024-01-30T05:17:44;22.25;;;7.57;;
66893;SDS011;53801;55.786;49.142;2024-01-30T05:20:40;18.83;;;6.30;;
66893;SDS011;53801;55.786;49.142;2024-01-30T05:23:14;19.43;;;6.63;;
66893;SDS011;53801;55.786;49.142;2024-01-30T05:25:39;17.80;;;6.07;;
66893;SDS011;53801;55.786;49.142;2024-01-30T05:28:14;19.80;;;7.10;;
66893;SDS011;53801;55.786;49.142;2024-01-30T05:30:39;19.35;;;7.38;;
66893;SDS011;53801;55.786;49.142;2024-01-30T05:33:05;17.27;;;6.00;;
66893;SDS011;53801;55.786;49.142;2024-01-30T05:35:31;26.98;;;7.00;;
66893;SDS011;53801;55.786;49.142;2024-01-30T05:37:56;20.17;;;6.80;;
66893;SDS011;53801;55.786;49.142;2024-01-30T05:40:22;14.63;;;5.80;;
66893;SDS011;53801;55.786;49.142;2024-01-30T05:42:51;18.80;;;5.97;;
66893;SDS011;53801;55.786;49.142;2024-01-30T05:45:17;19.33;;;6.10;;
66893;SDS011;53801;55.786;49.142;2024-01-30T05:48:17;20.10;;;6.80;;
66893;SDS011;53801;55.786;49.142;2024-01-30T05:50:43;23.93;;;7.40;;
66893;SDS011;53801;55.786;49.142;2024-01-30T05:53:10;23.25;;;8.02;;
66893;SDS011;53801;55.786;49.142;2024-01-30T05:58:25;23.50;;;8.70;;
66893;SDS011;53801;55.786;49.142;2024-01-30T06:00:53;25.02;;;7.65;;
66893;SDS011;53801;55.786;49.142;2024-01-30T06:03:22;21.70;;;7.55;;
66893;SDS011;53801;55.786;49.142;2024-01-30T06:06:09;25.30;;;7.03;;
66893;SDS011;53801;55.786;49.142;2024-01-30T06:08:34;19.73;;;6.30;;
66893;SDS011;53801;55.786;49.142;2024-01-30T06:11:20;23.05;;;7.88;;
66893;SDS011;53801;55.786;49.142;2024-01-30T06:13:46;39.53;;;11.97;;
66893;SDS011;53801;55.786;49.142;2024-01-30T06:19:00;21.55;;;8.10;;
66893;SDS011;53801;55.786;49.142;2024-01-30T06:21:32;19.40;;;6.83;;
66893;SDS011;53801;55.786;49.142;2024-01-30T06:24:02;20.05;;;7.38;;
66893;SDS011;53801;55.786;49.142;2024-01-30T06:26:28;25.55;;;9.55;;
66893;SDS011;53801;55.786;49.142;2024-01-30T06:28:53;25.33;;;8.33;;
66893;SDS011;53801;55.786;49.142;2024-01-30T06:31:22;20.90;;;6.97;;
66893;SDS011;53801;55.786;49.142;2024-01-30T06:33:48;22.48;;;7.55;;
66893;SDS011;53801;55.786;49.142;2024-01-30T06:36:14;23.65;;;8.20;;
66893;SDS011;53801;55.786;49.142;2024-01-30T06:38:42;25.13;;;8.67;;
66893;SDS011;53801;55.786;49.142;2024-01-30T06:41:08;27.52;;;9.35;;
66893;SDS011;53801;55.786;49.142;2024-01-30T06:43:34;32.53;;;9.47;;
66893;SDS011;53801;55.786;49.142;2024-01-30T06:46:00;27.55;;;9.15;;
66893;SDS011;53801;55.786;49.142;2024-01-30T06:48:25;46.97;;;12.50;;
66893;SDS011;53801;55.786;49.142;2024-01-30T06:50:57;32.13;;;9.82;;
66893;SDS011;53801;55.786;49.142;2024-01-30T06:53:23;23.52;;;7.53;;
66893;SDS011;53801;55.786;49.142;2024-01-30T06:56:15;32.83;;;9.13;;
66893;SDS011;53801;55.786;49.142;2024-01-30T06:58:50;26.33;;;7.85;;
66893;SDS011;53801;55.786;49.142;2024-01-30T07:01:15;31.30;;;8.77;;
66893;SDS011;53801;55.786;49.142;2024-01-30T07:03:42;23.77;;;7.80;;
66893;SDS011;53801;55.786;49.142;2024-01-30T07:06:20;23.77;;;8.13;;
66893;SDS011;53801;55.786;49.142;2024-01-30T07:08:49;27.60;;;9.32;;
66893;SDS011;53801;55.786;49.142;2024-01-30T07:14:55;26.13;;;7.25;;
66893;SDS011;53801;55.786;49.142;2024-01-30T07:17:24;22.53;;;7.33;;
66893;SDS011;53801;55.786;49.142;2024-01-30T07:19:51;27.02;;;9.23;;
66893;SDS011;53801;55.786;49.142;2024-01-30T07:22:18;33.08;;;9.90;;
66893;SDS011;53801;55.786;49.142;2024-01-30T07:24:50;25.98;;;7.97;;
66893;SDS011;53801;55.786;49.142;2024-01-30T07:27:27;22.38;;;7.70;;
66893;SDS011;53801;55.786;49.142;2024-01-30T07:29:53;29.15;;;8.88;;
66893;SDS011;53801;55.786;49.142;2024-01-30T07:32:18;28.60;;;8.90;;
66893;SDS011;53801;55.786;49.142;2024-01-30T07:34:47;30.77;;;9.57;;
66893;SDS011;53801;55.786;49.142;2024-01-30T07:37:13;23.87;;;7.67;;
66893;SDS011;53801;55.786;49.142;2024-01-30T07:39:41;16.58;;;5.72;;
66893;SDS011;53801;55.786;49.142;2024-01-30T07:42:06;22.20;;;7.15;;
66893;SDS011;53801;55.786;49.142;2024-01-30T07:44:36;22.83;;;8.73;;
66893;SDS011;53801;55.786;49.142;2024-01-30T07:47:01;26.07;;;8.40;;
66893;SDS011;53801;55.786;49.142;2024-01-30T07:49:28;23.80;;;8.80;;
66893;SDS011;53801;55.786;49.142;2024-01-30T07:51:53;25.42;;;7.60;;
66893;SDS011;53801;55.786;49.142;2024-01-30T07:54:22;22.27;;;7.33;;
66893;SDS011;53801;55.786;49.142;2024-01-30T08:00:09;24.20;;;7.77;;
66893;SDS011;53801;55.786;49.142;2024-01-30T08:02:35;16.60;;;6.85;;
66893;SDS011;53801;55.786;49.142;2024-01-30T08:05:01;25.77;;;8.35;;
66893;SDS011;53801;55.786;49.142;2024-01-30T08:07:29;22.43;;;7.77;;
66893;SDS011;53801;55.786;49.142;2024-01-30T08:09:56;29.05;;;9.00;;
66893;SDS011;53801;55.786;49.142;2024-01-30T08:12:21;24.95;;;8.65;;
66893;SDS011;53801;55.786;49.142;2024-01-30T08:14:47;19.23;;;6.77;;
66893;SDS011;53801;55.786;49.142;2024-01-30T08:17:13;23.35;;;8.82;;
66893;SDS011;53801;55.786;49.142;2024-01-30T08:20:28;24.93;;;8.50;;
66893;SDS011;53801;55.786;49.142;2024-01-30T08:22:39;25.20;;;6.95;;
66893;SDS011;53801;55.786;49.142;2024-01-30T08:25:05;25.75;;;9.98;;
66893;SDS011;53801;55.786;49.142;2024-01-30T08:27:31;22.90;;;8.80;;
66893;SDS011;53801;55.786;49.142;2024-01-30T08:29:57;23.57;;;8.27;;
66893;SDS011;53801;55.786;49.142;2024-01-30T08:32:23;20.40;;;7.73;;
66893;SDS011;53801;55.786;49.142;2024-01-30T08:34:49;23.20;;;9.13;;
66893;SDS011;53801;55.786;49.142;2024-01-30T08:37:18;25.75;;;8.40;;
66893;SDS011;53801;55.786;49.142;2024-01-30T08:39:46;22.90;;;8.60;;
66893;SDS011;53801;55.786;49.142;2024-01-30T08:42:12;23.43;;;7.87;;
66893;SDS011;53801;55.786;49.142;2024-01-30T08:44:38;26.60;;;9.50;;
66893;SDS011;53801;55.786;49.142;2024-01-30T08:47:04;25.27;;;9.60;;
66893;SDS011;53801;55.786;49.142;2024-01-30T08:49:32;31.73;;;10.07;;
66893;SDS011;53801;55.786;49.142;2024-01-30T08:51:57;28.58;;;9.68;;
66893;SDS011;53801;55.786;49.142;2024-01-30T08:54:23;33.37;;;11.97;;
66893;SDS011;53801;55.786;49.142;2024-01-30T09:00:13;27.65;;;9.50;;
66893;SDS011;53801;55.786;49.142;2024-01-30T09:02:41;28.50;;;10.60;;
66893;SDS011;53801;55.786;49.142;2024-01-30T09:05:10;26.73;;;10.47;;
66893;SDS011;53801;55.786;49.142;2024-01-30T09:07:35;23.25;;;9.32;;
66893;SDS011;53801;55.786;49.142;2024-01-30T09:10:01;25.63;;;10.03;;
66893;SDS011;53801;55.786;49.142;2024-01-30T09:12:29;33.17;;;12.32;;
66893;SDS011;53801;55.786;49.142;2024-01-30T09:14:57;26.20;;;9.93;;
66893;SDS011;53801;55.786;49.142;2024-01-30T09:17:23;29.00;;;10.50;;
66893;SDS011;53801;55.786;49.142;2024-01-30T09:19:49;26.23;;;8.65;;
66893;SDS011;53801;55.786;49.142;2024-01-30T09:22:14;26.10;;;10.60;;
66893;SDS011;53801;55.786;49.142;2024-01-30T09:24:40;25.02;;;10.18;;
66893;SDS011;53801;55.786;49.142;2024-01-30T09:27:06;27.47;;;10.00;;
66893;SDS011;53801;55.786;49.142;2024-01-30T09:29:31;25.23;;;9.52;;
66893;SDS011;53801;55.786;49.142;2024-01-30T09:31:59;24.47;;;9.70;;
66893;SDS011;53801;55.786;49.142;2024-01-30T09:34:25;30.33;;;12.02;;
66893;SDS011;53801;55.786;49.142;2024-01-30T09:36:51;27.77;;;9.73;;
66893;SDS011;53801;55.786;49.142;2024-01-30T09:39:16;18.67;;;7.87;;
66893;SDS011;53801;55.786;49.142;2024-01-30T09:41:49;23.92;;;9.07;;
66893;SDS011;53801;55.786;49.142;2024-01-30T09:44:21;20.42;;;7.65;;
66893;SDS011;53801;55.786;49.142;2024-01-30T09:47:07;22.88;;;8.27;;
66893;SDS011;53801;55.786;49.142;2024-01-30T09:49:33;23.63;;;9.05;;
66893;SDS011;53801;55.786;49.142;2024-01-30T09:55:14;27.27;;;8.23;;
66893;SDS011;53801;55.786;49.142;2024-01-30T09:57:41;21.02;;;8.52;;
66893;SDS011;53801;55.786;49.142;2024-01-30T10:00:06;26.05;;;9.85;;
66893;SDS011;53801;55.786;49.142;2024-01-30T10:02:35;23.30;;;10.57;;
66893;SDS011;53801;55.786;49.142;2024-01-30T10:05:03;40.38;;;14.25;;
66893;SDS011;53801;55.786;49.142;2024-01-30T10:07:36;28.17;;;9.45;;
66893;SDS011;53801;55.786;49.142;2024-01-30T10:10:08;23.65;;;8.93;;
66893;SDS011;53801;55.786;49.142;2024-01-30T10:16:35;32.37;;;10.87;;
66893;SDS011;53801;55.786;49.142;2024-01-30T10:26:12;24.88;;;10.13;;
66893;SDS011;53801;55.786;49.142;2024-01-30T10:29:08;19.15;;;7.88;;
66893;SDS011;53801;55.786;49.142;2024-01-30T10:32:00;24.77;;;9.17;;
66893;SDS011;53801;55.786;49.142;2024-01-30T10:34:35;25.05;;;10.63;;
66893;SDS011;53801;55.786;49.142;2024-01-30T10:37:13;36.28;;;13.98;;
66893;SDS011;53801;55.786;49.142;2024-01-30T10:39:44;33.13;;;12.13;;
66893;SDS011;53801;55.786;49.142;2024-01-30T10:45:24;23.00;;;7.40;;
66893;SDS011;53801;55.786;49.142;2024-01-30T10:48:01;16.67;;;7.50;;
66893;SDS011;53801;55.786;49.142;2024-01-30T10:50:56;22.67;;;7.07;;
66893;SDS011;53801;55.786;49.142;2024-01-30T10:53:42;21.45;;;7.70;;
66893;SDS011;53801;55.786;49.142;2024-01-30T10:59:42;23.80;;;8.00;;
66893;SDS011;53801;55.786;49.142;2024-01-30T11:02:19;27.55;;;9.98;;
66893;SDS011;53801;55.786;49.142;2024-01-30T11:04:45;21.15;;;7.75;;
66893;SDS011;53801;55.786;49.142;2024-01-30T11:07:25;17.52;;;6.78;;
66893;SDS011;53801;55.786;49.142;2024-01-30T11:23:03;26.40;;;6.93;;
66893;SDS011;53801;55.786;49.142;2024-01-30T11:25:56;56.13;;;18.73;;
66893;SDS011;53801;55.786;49.142;2024-01-30T11:37:09;26.50;;;9.77;;
66893;SDS011;53801;55.786;49.142;2024-01-30T11:43:10;29.17;;;9.70;;
66893;SDS011;53801;55.786;49.142;2024-01-30T11:49:36;32.70;;;10.60;;
66893;SDS011;53801;55.786;49.142;2024-01-30T11:58:43;40.13;;;13.02;;
66893;SDS011;53801;55.786;49.142;2024-01-30T12:04:05;36.28;;;11.63;;
66893;SDS011;53801;55.786;49.142;2024-01-30T12:06:57;28.52;;;11.45;;
66893;SDS011;53801;55.786;49.142;2024-01-30T12:09:51;30.13;;;11.23;;
66893;SDS011;53801;55.786;49.142;2024-01-30T12:13:00;24.90;;;8.68;;
66893;SDS011;53801;55.786;49.142;2024-01-30T12:15:46;21.05;;;8.07;;
66893;SDS011;53801;55.786;49.142;2024-01-30T12:22:16;21.88;;;9.15;;
66893;SDS011;53801;55.786;49.142;2024-01-30T12:25:13;21.13;;;8.07;;
66893;SDS011;53801;55.786;49.142;2024-01-30T12:28:09;19.00;;;7.03;;
66893;SDS011;53801;55.786;49.142;2024-01-30T12:31:08;15.65;;;6.72;;
66893;SDS011;53801;55.786;49.142;2024-01-30T12:34:05;19.13;;;7.30;;
66893;SDS011;53801;55.786;49.142;2024-01-30T12:37:13;16.98;;;7.07;;
66893;SDS011;53801;55.786;49.142;2024-01-30T12:40:08;18.57;;;7.20;;
66893;SDS011;53801;55.786;49.142;2024-01-30T12:46:02;31.30;;;10.70;;
66893;SDS011;53801;55.786;49.142;2024-01-30T12:48:50;23.42;;;10.68;;
66893;SDS011;53801;55.786;49.142;2024-01-30T12:51:39;22.15;;;8.38;;
66893;SDS011;53801;55.786;49.142;2024-01-30T12:54:46;22.20;;;8.30;;
66893;SDS011;53801;55.786;49.142;2024-01-30T12:57:37;23.10;;;8.15;;
66893;SDS011;53801;55.786;49.142;2024-01-30T13:00:21;24.13;;;9.60;;
66893;SDS011;53801;55.786;49.142;2024-01-30T13:03:22;24.95;;;9.60;;
66893;SDS011;53801;55.786;49.142;2024-01-30T13:05:52;27.65;;;11.15;;
66893;SDS011;53801;55.786;49.142;2024-01-30T13:11:54;24.73;;;10.30;;
66893;SDS011;53801;55.786;49.142;2024-01-30T13:14:19;30.88;;;12.20;;
66893;SDS011;53801;55.786;49.142;2024-01-30T13:16:58;24.38;;;10.98;;
66893;SDS011;53801;55.786;49.142;2024-01-30T13:19:26;26.70;;;11.02;;
66893;SDS011;53801;55.786;49.142;2024-01-30T13:21:55;27.23;;;12.73;;
66893;SDS011;53801;55.786;49.142;2024-01-30T13:24:30;23.45;;;8.55;;
66893;SDS011;53801;55.786;49.142;2024-01-30T13:26:59;18.17;;;8.20;;
66893;SDS011;53801;55.786;49.142;2024-01-30T13:29:35;22.30;;;8.75;;
66893;SDS011;53801;55.786;49.142;2024-01-30T13:32:25;24.75;;;8.80;;
66893;SDS011;53801;55.786;49.142;2024-01-30T13:37:47;19.60;;;8.27;;
66893;SDS011;53801;55.786;49.142;2024-01-30T13:40:23;19.75;;;8.13;;
66893;SDS011;53801;55.786;49.142;2024-01-30T13:43:01;17.83;;;7.72;;
66893;SDS011;53801;55.786;49.142;2024-01-30T13:45:29;17.70;;;7.82;;
66893;SDS011;53801;55.786;49.142;2024-01-30T13:51:17;14.40;;;5.97;;
66893;SDS011;53801;55.786;49.142;2024-01-30T13:53:46;16.15;;;6.95;;
66893;SDS011;53801;55.786;49.142;2024-01-30T13:56:21;14.55;;;5.43;;
66893;SDS011;53801;55.786;49.142;2024-01-30T13:59:02;11.40;;;5.88;;
66893;SDS011;53801;55.786;49.142;2024-01-30T14:01:38;18.30;;;8.27;;
66893;SDS011;53801;55.786;49.142;2024-01-30T14:04:07;18.38;;;8.95;;
66893;SDS011;53801;55.786;49.142;2024-01-30T14:06:36;20.48;;;9.30;;
66893;SDS011;53801;55.786;49.142;2024-01-30T14:09:02;15.00;;;7.32;;
66893;SDS011;53801;55.786;49.142;2024-01-30T14:11:29;22.57;;;8.13;;
66893;SDS011;53801;55.786;49.142;2024-01-30T14:14:00;21.48;;;8.88;;
66893;SDS011;53801;55.786;49.142;2024-01-30T14:16:25;17.58;;;8.02;;
66893;SDS011;53801;55.786;49.142;2024-01-30T14:22:16;18.15;;;8.05;;
66893;SDS011;53801;55.786;49.142;2024-01-30T14:24:50;16.90;;;7.93;;
66893;SDS011;53801;55.786;49.142;2024-01-30T14:27:55;16.35;;;6.53;;
66893;SDS011;53801;55.786;49.142;2024-01-30T14:30:43;21.08;;;7.25;;
66893;SDS011;53801;55.786;49.142;2024-01-30T14:33:29;18.15;;;6.20;;
66893;SDS011;53801;55.786;49.142;2024-01-30T14:36:04;11.57;;;4.65;;
66893;SDS011;53801;55.786;49.142;2024-01-30T14:41:44;9.07;;;3.85;;
66893;SDS011;53801;55.786;49.142;2024-01-30T14:44:50;12.82;;;4.60;;
66893;SDS011;53801;55.786;49.142;2024-01-30T14:47:27;9.60;;;3.67;;
66893;SDS011;53801;55.786;49.142;2024-01-30T14:50:23;7.82;;;2.85;;
66893;SDS011;53801;55.786;49.142;2024-01-30T14:53:08;10.70;;;4.00;;
66893;SDS011;53801;55.786;49.142;2024-01-30T14:55:51;10.35;;;3.30;;
66893;SDS011;53801;55.786;49.142;2024-01-30T14:58:37;10.48;;;3.20;;
66893;SDS011;53801;55.786;49.142;2024-01-30T15:01:23;7.43;;;2.63;;
66893;SDS011;53801;55.786;49.142;2024-01-30T15:04:09;7.15;;;2.40;;
66893;SDS011;53801;55.786;49.142;2024-01-30T15:07:22;8.07;;;2.60;;
66893;SDS011;53801;55.786;49.142;2024-01-30T15:09:58;8.32;;;2.65;;
66893;SDS011;53801;55.786;49.142;2024-01-30T15:15:45;12.05;;;2.88;;
66893;SDS011;53801;55.786;49.142;2024-01-30T15:18:19;7.43;;;2.40;;
66893;SDS011;53801;55.786;49.142;2024-01-30T15:21:09;6.77;;;2.77;;
66893;SDS011;53801;55.786;49.142;2024-01-30T15:23:46;7.50;;;2.50;;
66893;SDS011;53801;55.786;49.142;2024-01-30T15:26:14;9.20;;;2.63;;
66893;SDS011;53801;55.786;49.142;2024-01-30T15:29:18;8.77;;;3.15;;
66893;SDS011;53801;55.786;49.142;2024-01-30T15:34:59;12.73;;;2.60;;
66893;SDS011;53801;55.786;49.142;2024-01-30T15:37:51;8.70;;;2.47;;
66893;SDS011;53801;55.786;49.142;2024-01-30T15:40:25;6.70;;;2.65;;
66893;SDS011;53801;55.786;49.142;2024-01-30T15:42:53;6.05;;;1.90;;
66893;SDS011;53801;55.786;49.142;2024-01-30T15:45:28;10.63;;;2.58;;
66893;SDS011;53801;55.786;49.142;2024-01-30T15:47:57;6.60;;;2.90;;
66893;SDS011;53801;55.786;49.142;2024-01-30T15:50:23;9.50;;;2.97;;
66893;SDS011;53801;55.786;49.142;2024-01-30T15:56:12;6.32;;;2.10;;
66893;SDS011;53801;55.786;49.142;2024-01-30T15:58:54;6.20;;;2.13;;
66893;SDS011;53801;55.786;49.142;2024-01-30T16:01:27;5.33;;;2.60;;
66893;SDS011;53801;55.786;49.142;2024-01-30T16:03:55;5.68;;;2.28;;
66893;SDS011;53801;55.786;49.142;2024-01-30T16:06:49;6.65;;;2.22;;
66893;SDS011;53801;55.786;49.142;2024-01-30T16:12:45;7.53;;;2.35;;
66893;SDS011;53801;55.786;49.142;2024-01-30T16:27:24;4.95;;;2.30;;
66893;SDS011;53801;55.786;49.142;2024-01-30T16:30:31;6.67;;;2.50;;
66893;SDS011;53801;55.786;49.142;2024-01-30T16:33:42;8.27;;;2.50;;
66893;SDS011;53801;55.786;49.142;2024-01-30T16:36:08;6.43;;;2.20;;
66893;SDS011;53801;55.786;49.142;2024-01-30T16:38:37;6.53;;;2.50;;
66893;SDS011;53801;55.786;49.142;2024-01-30T16:41:17;4.88;;;2.05;;
66893;SDS011;53801;55.786;49.142;2024-01-30T16:44:04;8.48;;;2.97;;
66893;SDS011;53801;55.786;49.142;2024-01-30T16:53:33;9.03;;;2.73;;
66893;SDS011;53801;55.786;49.142;2024-01-30T16:56:05;6.95;;;2.40;;
66893;SDS011;53801;55.786;49.142;2024-01-30T16:58:33;6.60;;;1.95;;
66893;SDS011;53801;55.786;49.142;2024-01-30T17:00:59;6.03;;;2.00;;
66893;SDS011;53801;55.786;49.142;2024-01-30T17:03:25;12.17;;;2.87;;
66893;SDS011;53801;55.786;49.142;2024-01-30T17:09:39;4.93;;;2.05;;
66893;SDS011;53801;55.786;49.142;2024-01-30T17:12:05;8.30;;;2.80;;
66893;SDS011;53801;55.786;49.142;2024-01-30T17:14:31;7.93;;;2.80;;
66893;SDS011;53801;55.786;49.142;2024-01-30T17:16:57;9.73;;;2.63;;
66893;SDS011;53801;55.786;49.142;2024-01-30T17:22:47;6.43;;;2.40;;
66893;SDS011;53801;55.786;49.142;2024-01-30T17:26:02;4.93;;;1.40;;
66893;SDS011;53801;55.786;49.142;2024-01-30T17:28:28;5.82;;;2.00;;